sensor_id;sensor_type;location;lat;lon;timestamp;pressure;altitude;pressure_sealevel;temperature;humidity
62150;BME280;48134;53.586;10.610;2022-09-23T00:00:24;101436.78;;;7.85;100.00
62150;BME280;48134;53.586;10.610;2022-09-23T00:02:57;101424.44;;;7.77;100.00
62150;BME280;48134;53.586;10.610;2022-09-23T00:05:31;101437.53;;;7.80;100.00
62150;BME280;48134;53.586;10.610;2022-09-23T00:08:08;101418.47;;;7.75;100.00
62150;BME280;48134;53.586;10.610;2022-09-23T00:10:42;101431.88;;;7.82;100.00
62150;BME280;48134;53.586;10.610;2022-09-23T00:13:15;101431.19;;;7.75;100.00
62150;BME280;48134;53.586;10.610;2022-09-23T00:15:48;101420.38;;;7.75;100.00
62150;BME280;48134;53.586;10.610;2022-09-23T00:18:21;101403.91;;;7.64;100.00
62150;BME280;48134;53.586;10.610;2022-09-23T00:20:54;101419.75;;;7.73;100.00
62150;BME280;48134;53.586;10.610;2022-09-23T00:23:29;101417.31;;;7.71;100.00
62150;BME280;48134;53.586;10.610;2022-09-23T00:25:57;101394.84;;;7.59;100.00
62150;BME280;48134;53.586;10.610;2022-09-23T00:28:26;101412.38;;;7.68;100.00
62150;BME280;48134;53.586;10.610;2022-09-23T00:31:01;101419.19;;;7.71;100.00
62150;BME280;48134;53.586;10.610;2022-09-23T00:33:34;101413.53;;;7.72;100.00
62150;BME280;48134;53.586;10.610;2022-09-23T00:36:10;101409.66;;;7.68;100.00
62150;BME280;48134;53.586;10.610;2022-09-23T00:38:39;101407.53;;;7.70;100.00
62150;BME280;48134;53.586;10.610;2022-09-23T00:41:07;101408.56;;;7.69;100.00
62150;BME280;48134;53.586;10.610;2022-09-23T00:43:40;101404.25;;;7.68;100.00
62150;BME280;48134;53.586;10.610;2022-09-23T00:46:16;101389.44;;;7.59;100.00
62150;BME280;48134;53.586;10.610;2022-09-23T00:48:47;101406.13;;;7.68;100.00
62150;BME280;48134;53.586;10.610;2022-09-23T00:51:28;101399.34;;;7.53;100.00
62150;BME280;48134;53.586;10.610;2022-09-23T00:54:05;101398.75;;;7.51;100.00
62150;BME280;48134;53.586;10.610;2022-09-23T00:56:34;101398.31;;;7.54;100.00
62150;BME280;48134;53.586;10.610;2022-09-23T00:59:09;101393.94;;;7.53;100.00
62150;BME280;48134;53.586;10.610;2022-09-23T01:01:44;101392.88;;;7.54;100.00
62150;BME280;48134;53.586;10.610;2022-09-23T01:04:14;101391.72;;;7.50;100.00
62150;BME280;48134;53.586;10.610;2022-09-23T01:06:47;101392.09;;;7.42;100.00
62150;BME280;48134;53.586;10.610;2022-09-23T01:09:22;101383.50;;;7.45;100.00
62150;BME280;48134;53.586;10.610;2022-09-23T01:12:00;101376.56;;;7.37;100.00
62150;BME280;48134;53.586;10.610;2022-09-23T01:14:41;101370.19;;;7.43;100.00
62150;BME280;48134;53.586;10.610;2022-09-23T01:17:21;101368.41;;;7.49;100.00
62150;BME280;48134;53.586;10.610;2022-09-23T01:23:28;101371.28;;;7.30;100.00
62150;BME280;48134;53.586;10.610;2022-09-23T01:26:26;101365.41;;;7.34;100.00
62150;BME280;48134;53.586;10.610;2022-09-23T01:29:21;101352.56;;;7.29;100.00
62150;BME280;48134;53.586;10.610;2022-09-23T01:31:58;101349.88;;;7.29;100.00
62150;BME280;48134;53.586;10.610;2022-09-23T01:34:37;101360.47;;;7.30;100.00
62150;BME280;48134;53.586;10.610;2022-09-23T01:37:22;101359.66;;;7.30;100.00
62150;BME280;48134;53.586;10.610;2022-09-23T01:40:00;101359.88;;;7.28;100.00
62150;BME280;48134;53.586;10.610;2022-09-23T01:42:40;101351.16;;;7.26;100.00
62150;BME280;48134;53.586;10.610;2022-09-23T01:45:20;101358.09;;;7.34;100.00
62150;BME280;48134;53.586;10.610;2022-09-23T01:48:01;101356.00;;;7.24;100.00
62150;BME280;48134;53.586;10.610;2022-09-23T01:50:46;101355.09;;;7.19;100.00
62150;BME280;48134;53.586;10.610;2022-09-23T01:53:36;101351.91;;;7.22;100.00
62150;BME280;48134;53.586;10.610;2022-09-23T01:56:09;101354.03;;;7.20;100.00
62150;BME280;48134;53.586;10.610;2022-09-23T01:58:45;101352.75;;;7.22;100.00
62150;BME280;48134;53.586;10.610;2022-09-23T02:01:20;101336.78;;;7.09;100.00
62150;BME280;48134;53.586;10.610;2022-09-23T02:04:01;101349.47;;;7.08;100.00
62150;BME280;48134;53.586;10.610;2022-09-23T02:06:39;101329.72;;;6.96;100.00
62150;BME280;48134;53.586;10.610;2022-09-23T02:09:11;101344.91;;;7.09;100.00
62150;BME280;48134;53.586;10.610;2022-09-23T02:11:44;101335.38;;;7.06;100.00
62150;BME280;48134;53.586;10.610;2022-09-23T02:14:21;101331.34;;;7.09;100.00
62150;BME280;48134;53.586;10.610;2022-09-23T02:16:59;101330.56;;;6.96;100.00
62150;BME280;48134;53.586;10.610;2022-09-23T02:19:40;101326.88;;;7.03;100.00
62150;BME280;48134;53.586;10.610;2022-09-23T02:22:20;101328.19;;;7.00;100.00
62150;BME280;48134;53.586;10.610;2022-09-23T02:24:55;101331.97;;;6.99;100.00
62150;BME280;48134;53.586;10.610;2022-09-23T02:27:35;101321.47;;;7.03;100.00
62150;BME280;48134;53.586;10.610;2022-09-23T02:30:11;101318.91;;;6.96;100.00
62150;BME280;48134;53.586;10.610;2022-09-23T02:32:51;101307.28;;;6.95;100.00
62150;BME280;48134;53.586;10.610;2022-09-23T02:35:31;101318.22;;;7.01;100.00
62150;BME280;48134;53.586;10.610;2022-09-23T02:38:08;101314.91;;;6.98;100.00
62150;BME280;48134;53.586;10.610;2022-09-23T02:40:52;101297.56;;;6.83;100.00
62150;BME280;48134;53.586;10.610;2022-09-23T02:43:24;101308.44;;;7.00;100.00
62150;BME280;48134;53.586;10.610;2022-09-23T02:46:05;101308.91;;;6.96;100.00
62150;BME280;48134;53.586;10.610;2022-09-23T02:48:42;101302.34;;;6.92;100.00
62150;BME280;48134;53.586;10.610;2022-09-23T02:51:13;101293.06;;;6.88;100.00
62150;BME280;48134;53.586;10.610;2022-09-23T02:53:42;101303.75;;;6.95;100.00
62150;BME280;48134;53.586;10.610;2022-09-23T02:56:17;101294.13;;;6.87;100.00
62150;BME280;48134;53.586;10.610;2022-09-23T02:58:52;101290.13;;;6.78;100.00
62150;BME280;48134;53.586;10.610;2022-09-23T03:01:35;101291.09;;;6.84;100.00
62150;BME280;48134;53.586;10.610;2022-09-23T03:04:15;101289.22;;;6.72;100.00
62150;BME280;48134;53.586;10.610;2022-09-23T03:07:00;101288.97;;;6.74;100.00
62150;BME280;48134;53.586;10.610;2022-09-23T03:09:41;101296.28;;;6.73;100.00
62150;BME280;48134;53.586;10.610;2022-09-23T03:12:28;101290.19;;;6.66;100.00
62150;BME280;48134;53.586;10.610;2022-09-23T03:15:16;101273.94;;;6.66;100.00
62150;BME280;48134;53.586;10.610;2022-09-23T03:17:56;101283.13;;;6.65;100.00
62150;BME280;48134;53.586;10.610;2022-09-23T03:20:36;101287.00;;;6.69;100.00
62150;BME280;48134;53.586;10.610;2022-09-23T03:23:16;101277.72;;;6.65;100.00
62150;BME280;48134;53.586;10.610;2022-09-23T03:25:55;101274.56;;;6.56;100.00
62150;BME280;48134;53.586;10.610;2022-09-23T03:28:30;101275.00;;;6.65;100.00
62150;BME280;48134;53.586;10.610;2022-09-23T03:31:04;101265.25;;;6.64;100.00
62150;BME280;48134;53.586;10.610;2022-09-23T03:33:41;101261.84;;;6.69;100.00
62150;BME280;48134;53.586;10.610;2022-09-23T03:36:17;101257.34;;;6.74;100.00
62150;BME280;48134;53.586;10.610;2022-09-23T03:39:16;101264.16;;;6.77;100.00
62150;BME280;48134;53.586;10.610;2022-09-23T03:41:57;101260.44;;;6.66;100.00
62150;BME280;48134;53.586;10.610;2022-09-23T03:44:33;101264.88;;;6.72;100.00
62150;BME280;48134;53.586;10.610;2022-09-23T03:47:04;101255.34;;;6.70;100.00
62150;BME280;48134;53.586;10.610;2022-09-23T03:49:38;101246.91;;;6.66;100.00
62150;BME280;48134;53.586;10.610;2022-09-23T03:52:06;101253.13;;;6.67;100.00
62150;BME280;48134;53.586;10.610;2022-09-23T03:54:35;101245.75;;;6.62;100.00
62150;BME280;48134;53.586;10.610;2022-09-23T03:57:09;101243.84;;;6.62;100.00
62150;BME280;48134;53.586;10.610;2022-09-23T03:59:42;101235.41;;;6.59;100.00
62150;BME280;48134;53.586;10.610;2022-09-23T04:02:16;101237.94;;;6.66;100.00
62150;BME280;48134;53.586;10.610;2022-09-23T04:04:49;101231.59;;;6.72;100.00
62150;BME280;48134;53.586;10.610;2022-09-23T04:07:22;101235.47;;;6.76;100.00
62150;BME280;48134;53.586;10.610;2022-09-23T04:09:57;101224.00;;;6.86;100.00
62150;BME280;48134;53.586;10.610;2022-09-23T04:12:25;101233.53;;;6.88;100.00
62150;BME280;48134;53.586;10.610;2022-09-23T04:14:58;101233.66;;;6.93;100.00
62150;BME280;48134;53.586;10.610;2022-09-23T04:17:31;101228.22;;;6.93;100.00
62150;BME280;48134;53.586;10.610;2022-09-23T04:20:05;101217.16;;;6.95;100.00
62150;BME280;48134;53.586;10.610;2022-09-23T04:22:38;101212.03;;;7.10;100.00
62150;BME280;48134;53.586;10.610;2022-09-23T04:25:13;101220.03;;;7.05;100.00
62150;BME280;48134;53.586;10.610;2022-09-23T04:27:41;101217.19;;;7.12;100.00
62150;BME280;48134;53.586;10.610;2022-09-23T04:30:11;101210.38;;;7.09;100.00
62150;BME280;48134;53.586;10.610;2022-09-23T04:32:44;101214.25;;;7.13;100.00
62150;BME280;48134;53.586;10.610;2022-09-23T04:35:12;101209.66;;;7.14;100.00
62150;BME280;48134;53.586;10.610;2022-09-23T04:37:46;101206.47;;;7.17;100.00
62150;BME280;48134;53.586;10.610;2022-09-23T04:40:15;101200.22;;;7.17;100.00
62150;BME280;48134;53.586;10.610;2022-09-23T04:42:49;101206.22;;;7.19;100.00
62150;BME280;48134;53.586;10.610;2022-09-23T04:45:23;101197.28;;;7.18;100.00
62150;BME280;48134;53.586;10.610;2022-09-23T04:47:56;101208.66;;;7.20;100.00
62150;BME280;48134;53.586;10.610;2022-09-23T04:50:32;101205.47;;;7.23;100.00
62150;BME280;48134;53.586;10.610;2022-09-23T04:53:05;101205.22;;;7.25;100.00
62150;BME280;48134;53.586;10.610;2022-09-23T04:55:40;101205.47;;;7.23;100.00
62150;BME280;48134;53.586;10.610;2022-09-23T04:58:09;101197.59;;;7.22;100.00
62150;BME280;48134;53.586;10.610;2022-09-23T05:00:42;101198.75;;;7.26;100.00
62150;BME280;48134;53.586;10.610;2022-09-23T05:03:15;101198.50;;;7.27;100.00
62150;BME280;48134;53.586;10.610;2022-09-23T05:05:48;101190.88;;;7.24;100.00
62150;BME280;48134;53.586;10.610;2022-09-23T05:08:22;101195.28;;;7.30;100.00
62150;BME280;48134;53.586;10.610;2022-09-23T05:10:55;101193.34;;;7.26;100.00
62150;BME280;48134;53.586;10.610;2022-09-23T05:13:28;101198.19;;;7.24;100.00
62150;BME280;48134;53.586;10.610;2022-09-23T05:15:58;101194.16;;;7.26;100.00
62150;BME280;48134;53.586;10.610;2022-09-23T05:18:27;101194.75;;;7.28;100.00
62150;BME280;48134;53.586;10.610;2022-09-23T05:20:55;101198.50;;;7.27;100.00
62150;BME280;48134;53.586;10.610;2022-09-23T05:23:28;101198.84;;;7.31;100.00
62150;BME280;48134;53.586;10.610;2022-09-23T05:25:59;101199.34;;;7.28;100.00
62150;BME280;48134;53.586;10.610;2022-09-23T05:28:28;101199.66;;;7.31;100.00
62150;BME280;48134;53.586;10.610;2022-09-23T05:31:04;101198.59;;;7.32;100.00
62150;BME280;48134;53.586;10.610;2022-09-23T05:33:38;101193.94;;;7.28;100.00
62150;BME280;48134;53.586;10.610;2022-09-23T05:36:12;101188.00;;;7.31;100.00
62150;BME280;48134;53.586;10.610;2022-09-23T05:38:45;101186.38;;;7.30;100.00
62150;BME280;48134;53.586;10.610;2022-09-23T05:41:22;101199.75;;;7.37;100.00
62150;BME280;48134;53.586;10.610;2022-09-23T05:43:55;101177.50;;;7.35;100.00
62150;BME280;48134;53.586;10.610;2022-09-23T05:46:30;101188.16;;;7.41;100.00
62150;BME280;48134;53.586;10.610;2022-09-23T05:49:04;101182.84;;;7.46;100.00
62150;BME280;48134;53.586;10.610;2022-09-23T05:51:37;101185.63;;;7.52;100.00
62150;BME280;48134;53.586;10.610;2022-09-23T05:54:05;101184.25;;;7.49;100.00
62150;BME280;48134;53.586;10.610;2022-09-23T05:56:40;101187.84;;;7.55;100.00
62150;BME280;48134;53.586;10.610;2022-09-23T05:59:13;101185.94;;;7.55;100.00
62150;BME280;48134;53.586;10.610;2022-09-23T06:01:46;101189.00;;;7.59;100.00
62150;BME280;48134;53.586;10.610;2022-09-23T06:04:19;101183.91;;;7.62;100.00
62150;BME280;48134;53.586;10.610;2022-09-23T06:06:47;101180.63;;;7.60;100.00
62150;BME280;48134;53.586;10.610;2022-09-23T06:09:20;101181.22;;;7.62;100.00
62150;BME280;48134;53.586;10.610;2022-09-23T06:11:55;101183.50;;;7.71;100.00
62150;BME280;48134;53.586;10.610;2022-09-23T06:14:23;101180.38;;;7.79;100.00
62150;BME280;48134;53.586;10.610;2022-09-23T06:16:56;101181.09;;;7.74;100.00
62150;BME280;48134;53.586;10.610;2022-09-23T06:19:24;101191.75;;;7.81;100.00
62150;BME280;48134;53.586;10.610;2022-09-23T06:21:57;101182.72;;;7.92;100.00
62150;BME280;48134;53.586;10.610;2022-09-23T06:24:30;101185.91;;;7.89;100.00
62150;BME280;48134;53.586;10.610;2022-09-23T06:27:05;101191.47;;;7.99;100.00
62150;BME280;48134;53.586;10.610;2022-09-23T06:29:38;101187.94;;;7.99;100.00
62150;BME280;48134;53.586;10.610;2022-09-23T06:32:11;101196.25;;;8.09;100.00
62150;BME280;48134;53.586;10.610;2022-09-23T06:34:44;101166.00;;;8.00;100.00
62150;BME280;48134;53.586;10.610;2022-09-23T06:37:17;101182.88;;;8.25;100.00
62150;BME280;48134;53.586;10.610;2022-09-23T06:39:50;101181.31;;;8.29;100.00
62150;BME280;48134;53.586;10.610;2022-09-23T06:42:22;101185.78;;;8.40;100.00
62150;BME280;48134;53.586;10.610;2022-09-23T06:44:55;101182.56;;;8.43;100.00
62150;BME280;48134;53.586;10.610;2022-09-23T06:47:23;101181.41;;;8.39;100.00
62150;BME280;48134;53.586;10.610;2022-09-23T06:49:56;101184.72;;;8.41;100.00
62150;BME280;48134;53.586;10.610;2022-09-23T06:52:29;101167.59;;;8.41;100.00
62150;BME280;48134;53.586;10.610;2022-09-23T06:54:57;101175.91;;;8.51;100.00
62150;BME280;48134;53.586;10.610;2022-09-23T06:57:33;101171.03;;;8.53;100.00
62150;BME280;48134;53.586;10.610;2022-09-23T07:00:07;101181.63;;;8.55;100.00
62150;BME280;48134;53.586;10.610;2022-09-23T07:02:41;101181.94;;;8.58;100.00
62150;BME280;48134;53.586;10.610;2022-09-23T07:05:14;101182.00;;;8.63;100.00
62150;BME280;48134;53.586;10.610;2022-09-23T07:07:48;101181.63;;;8.55;100.00
62150;BME280;48134;53.586;10.610;2022-09-23T07:10:20;101185.47;;;8.59;100.00
62150;BME280;48134;53.586;10.610;2022-09-23T07:12:55;101178.97;;;8.60;100.00
62150;BME280;48134;53.586;10.610;2022-09-23T07:15:23;101177.13;;;8.65;100.00
62150;BME280;48134;53.586;10.610;2022-09-23T07:17:56;101176.06;;;8.66;100.00
62150;BME280;48134;53.586;10.610;2022-09-23T07:20:24;101175.25;;;8.66;100.00
62150;BME280;48134;53.586;10.610;2022-09-23T07:22:52;101168.47;;;8.68;100.00
62150;BME280;48134;53.586;10.610;2022-09-23T07:25:20;101171.78;;;8.71;100.00
62150;BME280;48134;53.586;10.610;2022-09-23T07:27:56;101172.66;;;8.76;100.00
62150;BME280;48134;53.586;10.610;2022-09-23T07:30:29;101172.31;;;8.73;100.00
62150;BME280;48134;53.586;10.610;2022-09-23T07:33:02;101176.63;;;8.68;100.00
62150;BME280;48134;53.586;10.610;2022-09-23T07:35:37;101173.44;;;8.77;100.00
62150;BME280;48134;53.586;10.610;2022-09-23T07:38:11;101179.53;;;8.84;100.00
62150;BME280;48134;53.586;10.610;2022-09-23T07:40:44;101173.00;;;8.85;100.00
62150;BME280;48134;53.586;10.610;2022-09-23T07:43:19;101186.69;;;8.95;100.00
62150;BME280;48134;53.586;10.610;2022-09-23T07:45:52;101178.34;;;9.02;100.00
62150;BME280;48134;53.586;10.610;2022-09-23T07:48:25;101173.81;;;9.13;100.00
62150;BME280;48134;53.586;10.610;2022-09-23T07:50:53;101177.66;;;9.17;100.00
62150;BME280;48134;53.586;10.610;2022-09-23T07:53:26;101179.38;;;9.28;100.00
62150;BME280;48134;53.586;10.610;2022-09-23T07:55:59;101179.41;;;9.33;100.00
62150;BME280;48134;53.586;10.610;2022-09-23T07:58:32;101180.28;;;9.39;100.00
62150;BME280;48134;53.586;10.610;2022-09-23T08:01:08;101175.66;;;9.40;100.00
62150;BME280;48134;53.586;10.610;2022-09-23T08:03:44;101184.13;;;9.43;100.00
62150;BME280;48134;53.586;10.610;2022-09-23T08:06:17;101180.63;;;9.48;100.00
62150;BME280;48134;53.586;10.610;2022-09-23T08:08:51;101183.94;;;9.55;100.00
62150;BME280;48134;53.586;10.610;2022-09-23T08:11:25;101170.66;;;9.59;100.00
62150;BME280;48134;53.586;10.610;2022-09-23T08:14:00;101177.53;;;9.72;100.00
62150;BME280;48134;53.586;10.610;2022-09-23T08:16:33;101180.06;;;9.83;100.00
62150;BME280;48134;53.586;10.610;2022-09-23T08:19:07;101176.34;;;10.00;100.00
62150;BME280;48134;53.586;10.610;2022-09-23T08:21:40;101179.97;;;10.21;100.00
62150;BME280;48134;53.586;10.610;2022-09-23T08:24:15;101184.69;;;10.36;100.00
62150;BME280;48134;53.586;10.610;2022-09-23T08:26:50;101187.44;;;10.46;100.00
62150;BME280;48134;53.586;10.610;2022-09-23T08:29:25;101189.13;;;10.52;100.00
62150;BME280;48134;53.586;10.610;2022-09-23T08:31:58;101185.59;;;10.62;100.00
62150;BME280;48134;53.586;10.610;2022-09-23T08:34:31;101179.63;;;10.65;100.00
62150;BME280;48134;53.586;10.610;2022-09-23T08:37:01;101183.47;;;10.80;100.00
62150;BME280;48134;53.586;10.610;2022-09-23T08:39:34;101181.59;;;10.96;100.00
62150;BME280;48134;53.586;10.610;2022-09-23T08:42:15;101171.53;;;11.06;100.00
62150;BME280;48134;53.586;10.610;2022-09-23T08:44:54;101175.91;;;11.18;100.00
62150;BME280;48134;53.586;10.610;2022-09-23T08:47:34;101175.63;;;11.19;100.00
62150;BME280;48134;53.586;10.610;2022-09-23T08:50:13;101164.47;;;11.26;100.00
62150;BME280;48134;53.586;10.610;2022-09-23T08:52:49;101169.34;;;11.29;100.00
62150;BME280;48134;53.586;10.610;2022-09-23T08:55:28;101155.47;;;11.31;100.00
62150;BME280;48134;53.586;10.610;2022-09-23T08:58:09;101162.28;;;11.33;100.00
62150;BME280;48134;53.586;10.610;2022-09-23T09:01:00;101164.19;;;11.48;100.00
62150;BME280;48134;53.586;10.610;2022-09-23T09:03:38;101147.78;;;11.58;100.00
62150;BME280;48134;53.586;10.610;2022-09-23T09:06:14;101155.16;;;11.68;100.00
62150;BME280;48134;53.586;10.610;2022-09-23T09:08:52;101154.88;;;11.70;100.00
62150;BME280;48134;53.586;10.610;2022-09-23T09:11:32;101153.25;;;11.64;100.00
62150;BME280;48134;53.586;10.610;2022-09-23T09:14:16;101142.91;;;11.40;100.00
62150;BME280;48134;53.586;10.610;2022-09-23T09:16:57;101145.38;;;11.47;100.00
62150;BME280;48134;53.586;10.610;2022-09-23T09:19:51;101154.88;;;11.54;100.00
62150;BME280;48134;53.586;10.610;2022-09-23T09:22:37;101151.63;;;11.57;100.00
62150;BME280;48134;53.586;10.610;2022-09-23T09:25:20;101143.16;;;11.69;100.00
62150;BME280;48134;53.586;10.610;2022-09-23T09:27:54;101143.69;;;11.77;100.00
62150;BME280;48134;53.586;10.610;2022-09-23T09:30:29;101138.22;;;11.82;100.00
62150;BME280;48134;53.586;10.610;2022-09-23T09:33:09;101136.03;;;11.94;100.00
62150;BME280;48134;53.586;10.610;2022-09-23T09:35:56;101137.91;;;12.04;100.00
62150;BME280;48134;53.586;10.610;2022-09-23T09:38:31;101134.09;;;12.05;100.00
62150;BME280;48134;53.586;10.610;2022-09-23T09:41:12;101134.31;;;12.14;100.00
62150;BME280;48134;53.586;10.610;2022-09-23T09:43:47;101123.69;;;12.12;100.00
62150;BME280;48134;53.586;10.610;2022-09-23T09:46:35;101126.13;;;12.14;100.00
62150;BME280;48134;53.586;10.610;2022-09-23T09:49:23;101131.84;;;12.17;100.00
62150;BME280;48134;53.586;10.610;2022-09-23T09:52:13;101110.22;;;12.31;100.00
62150;BME280;48134;53.586;10.610;2022-09-23T09:54:48;101114.78;;;12.51;100.00
62150;BME280;48134;53.586;10.610;2022-09-23T09:57:21;101117.38;;;12.72;100.00
62150;BME280;48134;53.586;10.610;2022-09-23T09:59:53;101103.94;;;12.75;100.00
62150;BME280;48134;53.586;10.610;2022-09-23T10:02:28;101106.69;;;12.75;100.00
62150;BME280;48134;53.586;10.610;2022-09-23T10:05:05;101109.59;;;12.89;100.00
62150;BME280;48134;53.586;10.610;2022-09-23T10:07:38;101106.84;;;12.89;100.00
62150;BME280;48134;53.586;10.610;2022-09-23T10:10:17;101108.16;;;12.97;100.00
62150;BME280;48134;53.586;10.610;2022-09-23T10:12:51;101095.03;;;12.99;100.00
62150;BME280;48134;53.586;10.610;2022-09-23T10:15:27;101096.34;;;13.07;100.00
62150;BME280;48134;53.586;10.610;2022-09-23T10:18:02;101097.66;;;13.15;100.00
62150;BME280;48134;53.586;10.610;2022-09-23T10:20:36;101096.31;;;13.12;100.00
62150;BME280;48134;53.586;10.610;2022-09-23T10:23:15;101096.03;;;13.08;100.00
62150;BME280;48134;53.586;10.610;2022-09-23T10:25:55;101083.16;;;13.14;100.00
62150;BME280;48134;53.586;10.610;2022-09-23T10:28:37;101092.00;;;13.35;100.00
62150;BME280;48134;53.586;10.610;2022-09-23T10:31:13;101093.31;;;13.43;100.00
62150;BME280;48134;53.586;10.610;2022-09-23T10:33:49;101085.56;;;13.50;100.00
62150;BME280;48134;53.586;10.610;2022-09-23T10:36:23;101089.75;;;13.67;100.00
62150;BME280;48134;53.586;10.610;2022-09-23T10:38:58;101084.63;;;13.60;100.00
62150;BME280;48134;53.586;10.610;2022-09-23T10:41:54;101081.75;;;13.75;100.00
62150;BME280;48134;53.586;10.610;2022-09-23T10:44:57;101070.72;;;13.81;100.00
62150;BME280;48134;53.586;10.610;2022-09-23T10:47:58;101072.53;;;13.90;100.00
62150;BME280;48134;53.586;10.610;2022-09-23T10:50:37;101071.72;;;13.90;100.00
62150;BME280;48134;53.586;10.610;2022-09-23T10:53:17;101065.59;;;13.98;100.00
62150;BME280;48134;53.586;10.610;2022-09-23T10:56:07;101075.59;;;14.08;100.00
62150;BME280;48134;53.586;10.610;2022-09-23T11:02:09;101058.91;;;14.28;100.00
62150;BME280;48134;53.586;10.610;2022-09-23T11:08:09;101059.56;;;14.39;100.00
62150;BME280;48134;53.586;10.610;2022-09-23T11:11:06;101053.88;;;14.74;100.00
62150;BME280;48134;53.586;10.610;2022-09-23T11:13:51;101058.13;;;14.80;100.00
62150;BME280;48134;53.586;10.610;2022-09-23T11:16:38;101048.72;;;14.86;100.00
62150;BME280;48134;53.586;10.610;2022-09-23T11:19:22;101046.41;;;14.93;100.00
62150;BME280;48134;53.586;10.610;2022-09-23T11:22:08;101042.19;;;15.01;100.00
62150;BME280;48134;53.586;10.610;2022-09-23T11:25:02;101029.31;;;15.16;100.00
62150;BME280;48134;53.586;10.610;2022-09-23T11:28:04;101037.94;;;15.37;100.00
62150;BME280;48134;53.586;10.610;2022-09-23T11:30:43;101025.88;;;15.24;100.00
62150;BME280;48134;53.586;10.610;2022-09-23T11:33:34;101022.50;;;15.27;100.00
62150;BME280;48134;53.586;10.610;2022-09-23T11:36:16;101024.78;;;15.39;100.00
62150;BME280;48134;53.586;10.610;2022-09-23T11:38:53;101020.91;;;15.40;100.00
62150;BME280;48134;53.586;10.610;2022-09-23T11:41:26;101011.25;;;15.42;100.00
62150;BME280;48134;53.586;10.610;2022-09-23T11:44:06;101027.50;;;15.53;100.00
62150;BME280;48134;53.586;10.610;2022-09-23T11:46:49;101014.81;;;15.57;100.00
62150;BME280;48134;53.586;10.610;2022-09-23T11:49:27;101022.22;;;15.56;100.00
62150;BME280;48134;53.586;10.610;2022-09-23T11:52:05;101018.34;;;15.57;100.00
62150;BME280;48134;53.586;10.610;2022-09-23T11:54:45;101006.47;;;15.62;100.00
62150;BME280;48134;53.586;10.610;2022-09-23T11:57:23;100997.81;;;15.69;100.00
62150;BME280;48134;53.586;10.610;2022-09-23T12:00:03;100997.00;;;15.68;100.00
62150;BME280;48134;53.586;10.610;2022-09-23T12:02:44;100990.50;;;15.78;100.00
62150;BME280;48134;53.586;10.610;2022-09-23T12:05:21;100992.06;;;15.84;100.00
62150;BME280;48134;53.586;10.610;2022-09-23T12:07:58;100997.53;;;15.84;100.00
62150;BME280;48134;53.586;10.610;2022-09-23T12:10:42;100989.50;;;15.88;100.00
62150;BME280;48134;53.586;10.610;2022-09-23T12:13:19;100989.09;;;15.80;100.00
62150;BME280;48134;53.586;10.610;2022-09-23T12:16:07;100981.66;;;15.81;100.00
62150;BME280;48134;53.586;10.610;2022-09-23T12:18:53;100985.31;;;15.90;100.00
62150;BME280;48134;53.586;10.610;2022-09-23T12:21:48;100968.53;;;15.92;100.00
62150;BME280;48134;53.586;10.610;2022-09-23T12:24:46;100973.72;;;15.93;100.00
62150;BME280;48134;53.586;10.610;2022-09-23T12:27:29;100972.13;;;15.92;100.00
62150;BME280;48134;53.586;10.610;2022-09-23T12:30:02;100972.59;;;15.94;100.00
62150;BME280;48134;53.586;10.610;2022-09-23T12:32:38;100964.88;;;15.96;100.00
62150;BME280;48134;53.586;10.610;2022-09-23T12:35:23;100972.59;;;15.94;100.00
62150;BME280;48134;53.586;10.610;2022-09-23T12:37:58;100971.91;;;15.89;100.00
62150;BME280;48134;53.586;10.610;2022-09-23T12:40:30;100975.66;;;15.79;100.00
62150;BME280;48134;53.586;10.610;2022-09-23T12:43:15;100963.47;;;15.71;100.00
62150;BME280;48134;53.586;10.610;2022-09-23T12:45:48;100970.09;;;15.70;100.00
62150;BME280;48134;53.586;10.610;2022-09-23T12:48:42;100956.06;;;15.72;100.00
62150;BME280;48134;53.586;10.610;2022-09-23T12:51:18;100962.47;;;15.67;100.00
62150;BME280;48134;53.586;10.610;2022-09-23T12:57:02;100959.19;;;15.79;100.00
62150;BME280;48134;53.586;10.610;2022-09-23T12:59:56;100952.63;;;15.80;100.00
62150;BME280;48134;53.586;10.610;2022-09-23T13:02:33;100948.63;;;15.86;100.00
62150;BME280;48134;53.586;10.610;2022-09-23T13:05:19;100946.31;;;15.79;100.00
62150;BME280;48134;53.586;10.610;2022-09-23T13:08:13;100955.06;;;15.81;100.00
62150;BME280;48134;53.586;10.610;2022-09-23T13:10:51;100943.16;;;15.72;100.00
62150;BME280;48134;53.586;10.610;2022-09-23T13:13:28;100939.91;;;15.70;100.00
62150;BME280;48134;53.586;10.610;2022-09-23T13:16:09;100934.91;;;15.72;100.00
62150;BME280;48134;53.586;10.610;2022-09-23T13:18:49;100941.41;;;15.76;100.00
62150;BME280;48134;53.586;10.610;2022-09-23T13:21:59;100931.47;;;15.80;100.00
62150;BME280;48134;53.586;10.610;2022-09-23T13:24:36;100933.97;;;15.91;100.00
62150;BME280;48134;53.586;10.610;2022-09-23T13:27:20;100927.06;;;15.93;100.00
62150;BME280;48134;53.586;10.610;2022-09-23T13:29:58;100926.56;;;15.91;100.00
62150;BME280;48134;53.586;10.610;2022-09-23T13:32:29;100930.63;;;15.94;100.00
62150;BME280;48134;53.586;10.610;2022-09-23T13:35:05;100922.88;;;15.96;100.00
62150;BME280;48134;53.586;10.610;2022-09-23T13:37:48;100921.56;;;15.93;100.00